sensor_id;sensor_type;location;lat;lon;timestamp;P1;durP1;ratioP1;P2;durP2;ratioP2
17606;SDS011;69222;52.242;20.980;2023-07-09T00:01:53;4.03;;;3.03;;
17606;SDS011;69222;52.242;20.980;2023-07-09T00:04:21;5.93;;;3.08;;
17606;SDS011;69222;52.242;20.980;2023-07-09T00:06:49;5.18;;;2.88;;
17606;SDS011;69222;52.242;20.980;2023-07-09T00:09:19;3.40;;;3.10;;
17606;SDS011;69222;52.242;20.980;2023-07-09T00:11:49;6.15;;;3.83;;
17606;SDS011;69222;52.242;20.980;2023-07-09T00:14:18;4.47;;;3.20;;
17606;SDS011;69222;52.242;20.980;2023-07-09T00:16:47;3.80;;;2.88;;
17606;SDS011;69222;52.242;20.980;2023-07-09T00:19:17;6.28;;;3.17;;
17606;SDS011;69222;52.242;20.980;2023-07-09T00:21:47;4.25;;;3.25;;
17606;SDS011;69222;52.242;20.980;2023-07-09T00:24:20;4.40;;;3.60;;
17606;SDS011;69222;52.242;20.980;2023-07-09T00:26:48;3.63;;;3.30;;
17606;SDS011;69222;52.242;20.980;2023-07-09T00:29:16;5.38;;;3.25;;
17606;SDS011;69222;52.242;20.980;2023-07-09T00:31:45;8.25;;;3.42;;
17606;SDS011;69222;52.242;20.980;2023-07-09T00:34:15;7.18;;;3.00;;
17606;SDS011;69222;52.242;20.980;2023-07-09T00:36:48;5.82;;;3.22;;
17606;SDS011;69222;52.242;20.980;2023-07-09T00:39:17;5.28;;;3.10;;
17606;SDS011;69222;52.242;20.980;2023-07-09T00:41:47;4.32;;;2.60;;
17606;SDS011;69222;52.242;20.980;2023-07-09T00:44:23;4.70;;;3.38;;
17606;SDS011;69222;52.242;20.980;2023-07-09T00:47:17;3.40;;;2.70;;
17606;SDS011;69222;52.242;20.980;2023-07-09T00:49:59;3.67;;;3.17;;
17606;SDS011;69222;52.242;20.980;2023-07-09T00:52:37;4.80;;;3.10;;
17606;SDS011;69222;52.242;20.980;2023-07-09T00:55:12;3.20;;;2.90;;
17606;SDS011;69222;52.242;20.980;2023-07-09T00:57:42;3.30;;;2.95;;
17606;SDS011;69222;52.242;20.980;2023-07-09T01:00:23;3.80;;;2.80;;
17606;SDS011;69222;52.242;20.980;2023-07-09T01:03:04;3.85;;;3.03;;
17606;SDS011;69222;52.242;20.980;2023-07-09T01:05:35;3.55;;;3.13;;
17606;SDS011;69222;52.242;20.980;2023-07-09T01:08:05;5.53;;;2.95;;
17606;SDS011;69222;52.242;20.980;2023-07-09T01:10:35;3.50;;;2.47;;
17606;SDS011;69222;52.242;20.980;2023-07-09T01:13:06;4.63;;;2.67;;
17606;SDS011;69222;52.242;20.980;2023-07-09T01:15:35;5.07;;;3.15;;
17606;SDS011;69222;52.242;20.980;2023-07-09T01:18:04;4.28;;;3.00;;
17606;SDS011;69222;52.242;20.980;2023-07-09T01:20:34;3.92;;;2.80;;
17606;SDS011;69222;52.242;20.980;2023-07-09T01:23:03;3.17;;;2.78;;
17606;SDS011;69222;52.242;20.980;2023-07-09T01:25:32;3.45;;;2.92;;
17606;SDS011;69222;52.242;20.980;2023-07-09T01:28:00;5.00;;;2.83;;
17606;SDS011;69222;52.242;20.980;2023-07-09T01:30:30;5.45;;;3.13;;
17606;SDS011;69222;52.242;20.980;2023-07-09T01:33:02;4.85;;;3.20;;
17606;SDS011;69222;52.242;20.980;2023-07-09T01:35:33;5.28;;;3.25;;
17606;SDS011;69222;52.242;20.980;2023-07-09T01:38:04;3.78;;;3.10;;
17606;SDS011;69222;52.242;20.980;2023-07-09T01:40:33;3.95;;;2.85;;
17606;SDS011;69222;52.242;20.980;2023-07-09T01:43:04;4.18;;;3.22;;
17606;SDS011;69222;52.242;20.980;2023-07-09T01:45:34;3.67;;;3.30;;
17606;SDS011;69222;52.242;20.980;2023-07-09T01:48:03;3.55;;;2.67;;
17606;SDS011;69222;52.242;20.980;2023-07-09T01:50:31;4.85;;;3.03;;
17606;SDS011;69222;52.242;20.980;2023-07-09T01:52:59;4.05;;;3.10;;
17606;SDS011;69222;52.242;20.980;2023-07-09T01:55:29;3.65;;;3.33;;
17606;SDS011;69222;52.242;20.980;2023-07-09T01:57:57;3.58;;;3.28;;
17606;SDS011;69222;52.242;20.980;2023-07-09T02:00:25;5.35;;;3.28;;
17606;SDS011;69222;52.242;20.980;2023-07-09T02:02:53;6.28;;;3.55;;
17606;SDS011;69222;52.242;20.980;2023-07-09T02:05:22;6.10;;;3.40;;
17606;SDS011;69222;52.242;20.980;2023-07-09T02:07:50;4.30;;;3.28;;
17606;SDS011;69222;52.242;20.980;2023-07-09T02:10:18;4.25;;;3.38;;
17606;SDS011;69222;52.242;20.980;2023-07-09T02:12:47;7.30;;;3.67;;
17606;SDS011;69222;52.242;20.980;2023-07-09T02:15:16;6.13;;;4.10;;
17606;SDS011;69222;52.242;20.980;2023-07-09T02:17:44;5.93;;;3.72;;
17606;SDS011;69222;52.242;20.980;2023-07-09T02:20:12;5.28;;;3.60;;
17606;SDS011;69222;52.242;20.980;2023-07-09T02:22:42;4.00;;;3.60;;
17606;SDS011;69222;52.242;20.980;2023-07-09T02:25:10;6.15;;;4.20;;
17606;SDS011;69222;52.242;20.980;2023-07-09T02:27:38;8.80;;;3.90;;
17606;SDS011;69222;52.242;20.980;2023-07-09T02:30:08;4.47;;;3.67;;
17606;SDS011;69222;52.242;20.980;2023-07-09T02:32:37;5.65;;;3.92;;
17606;SDS011;69222;52.242;20.980;2023-07-09T02:35:06;4.10;;;3.70;;
17606;SDS011;69222;52.242;20.980;2023-07-09T02:37:35;4.88;;;3.80;;
17606;SDS011;69222;52.242;20.980;2023-07-09T02:40:03;5.43;;;3.47;;
17606;SDS011;69222;52.242;20.980;2023-07-09T02:42:33;3.85;;;3.45;;
17606;SDS011;69222;52.242;20.980;2023-07-09T02:45:01;5.40;;;4.03;;
17606;SDS011;69222;52.242;20.980;2023-07-09T02:47:31;4.20;;;3.42;;
17606;SDS011;69222;52.242;20.980;2023-07-09T02:50:00;8.75;;;5.43;;
17606;SDS011;69222;52.242;20.980;2023-07-09T02:52:29;6.53;;;3.38;;
17606;SDS011;69222;52.242;20.980;2023-07-09T02:54:57;4.20;;;3.80;;
17606;SDS011;69222;52.242;20.980;2023-07-09T02:57:25;5.32;;;3.47;;
17606;SDS011;69222;52.242;20.980;2023-07-09T02:59:53;3.70;;;3.40;;
17606;SDS011;69222;52.242;20.980;2023-07-09T03:02:21;4.05;;;3.60;;
17606;SDS011;69222;52.242;20.980;2023-07-09T03:04:50;5.07;;;3.80;;
17606;SDS011;69222;52.242;20.980;2023-07-09T03:07:18;7.53;;;3.72;;
17606;SDS011;69222;52.242;20.980;2023-07-09T03:09:46;6.85;;;3.72;;
17606;SDS011;69222;52.242;20.980;2023-07-09T03:12:14;4.70;;;3.70;;
17606;SDS011;69222;52.242;20.980;2023-07-09T03:14:42;5.00;;;4.03;;
17606;SDS011;69222;52.242;20.980;2023-07-09T03:17:10;4.47;;;3.28;;
17606;SDS011;69222;52.242;20.980;2023-07-09T03:19:38;5.35;;;3.90;;
17606;SDS011;69222;52.242;20.980;2023-07-09T03:22:07;4.50;;;4.10;;
17606;SDS011;69222;52.242;20.980;2023-07-09T03:24:35;5.68;;;4.18;;
17606;SDS011;69222;52.242;20.980;2023-07-09T03:27:04;3.80;;;3.50;;
17606;SDS011;69222;52.242;20.980;2023-07-09T03:29:33;5.05;;;4.00;;
17606;SDS011;69222;52.242;20.980;2023-07-09T03:32:00;5.43;;;3.90;;
17606;SDS011;69222;52.242;20.980;2023-07-09T03:34:28;4.15;;;3.75;;
17606;SDS011;69222;52.242;20.980;2023-07-09T03:36:56;6.65;;;4.05;;
17606;SDS011;69222;52.242;20.980;2023-07-09T03:39:26;4.57;;;3.85;;
17606;SDS011;69222;52.242;20.980;2023-07-09T03:41:54;4.07;;;3.63;;
17606;SDS011;69222;52.242;20.980;2023-07-09T03:44:22;4.70;;;3.88;;
17606;SDS011;69222;52.242;20.980;2023-07-09T03:46:50;4.20;;;3.70;;
17606;SDS011;69222;52.242;20.980;2023-07-09T03:49:18;3.75;;;3.45;;
17606;SDS011;69222;52.242;20.980;2023-07-09T03:51:46;4.68;;;3.70;;
17606;SDS011;69222;52.242;20.980;2023-07-09T03:54:14;4.18;;;3.78;;
17606;SDS011;69222;52.242;20.980;2023-07-09T03:56:43;3.90;;;3.50;;
17606;SDS011;69222;52.242;20.980;2023-07-09T03:59:11;4.30;;;3.50;;
17606;SDS011;69222;52.242;20.980;2023-07-09T04:01:39;3.67;;;3.00;;
17606;SDS011;69222;52.242;20.980;2023-07-09T04:04:12;3.92;;;3.17;;
17606;SDS011;69222;52.242;20.980;2023-07-09T04:06:41;4.15;;;3.20;;
17606;SDS011;69222;52.242;20.980;2023-07-09T04:09:08;8.70;;;3.10;;
17606;SDS011;69222;52.242;20.980;2023-07-09T04:11:36;4.03;;;3.22;;
17606;SDS011;69222;52.242;20.980;2023-07-09T04:14:06;4.20;;;3.65;;
17606;SDS011;69222;52.242;20.980;2023-07-09T04:16:34;5.45;;;3.22;;
17606;SDS011;69222;52.242;20.980;2023-07-09T04:19:02;3.95;;;3.17;;
17606;SDS011;69222;52.242;20.980;2023-07-09T04:21:30;3.47;;;2.80;;
17606;SDS011;69222;52.242;20.980;2023-07-09T04:23:58;4.32;;;3.28;;
17606;SDS011;69222;52.242;20.980;2023-07-09T04:26:26;3.53;;;3.22;;
17606;SDS011;69222;52.242;20.980;2023-07-09T04:28:55;5.20;;;3.17;;
17606;SDS011;69222;52.242;20.980;2023-07-09T04:31:24;4.57;;;2.80;;
17606;SDS011;69222;52.242;20.980;2023-07-09T04:33:52;4.55;;;3.25;;
17606;SDS011;69222;52.242;20.980;2023-07-09T04:36:20;2.80;;;2.60;;
17606;SDS011;69222;52.242;20.980;2023-07-09T04:38:48;3.30;;;3.00;;
17606;SDS011;69222;52.242;20.980;2023-07-09T04:41:16;4.03;;;2.97;;
17606;SDS011;69222;52.242;20.980;2023-07-09T04:43:44;4.28;;;3.00;;
17606;SDS011;69222;52.242;20.980;2023-07-09T04:46:12;5.75;;;2.30;;
17606;SDS011;69222;52.242;20.980;2023-07-09T04:48:41;4.45;;;2.83;;
17606;SDS011;69222;52.242;20.980;2023-07-09T04:51:09;5.80;;;2.53;;
17606;SDS011;69222;52.242;20.980;2023-07-09T04:53:37;2.65;;;2.45;;
17606;SDS011;69222;52.242;20.980;2023-07-09T04:56:05;2.65;;;2.45;;
17606;SDS011;69222;52.242;20.980;2023-07-09T04:58:33;3.25;;;2.70;;
17606;SDS011;69222;52.242;20.980;2023-07-09T05:01:01;3.25;;;2.55;;
17606;SDS011;69222;52.242;20.980;2023-07-09T05:03:30;3.00;;;2.60;;
17606;SDS011;69222;52.242;20.980;2023-07-09T05:05:59;4.95;;;2.75;;
17606;SDS011;69222;52.242;20.980;2023-07-09T05:08:27;3.03;;;2.40;;
17606;SDS011;69222;52.242;20.980;2023-07-09T05:10:56;2.88;;;2.13;;
17606;SDS011;69222;52.242;20.980;2023-07-09T05:13:24;3.08;;;2.25;;
17606;SDS011;69222;52.242;20.980;2023-07-09T05:15:53;3.33;;;3.03;;
17606;SDS011;69222;52.242;20.980;2023-07-09T05:18:22;3.35;;;2.35;;
17606;SDS011;69222;52.242;20.980;2023-07-09T05:20:50;3.00;;;2.70;;
17606;SDS011;69222;52.242;20.980;2023-07-09T05:23:19;2.78;;;2.40;;
17606;SDS011;69222;52.242;20.980;2023-07-09T05:25:47;2.55;;;2.05;;
17606;SDS011;69222;52.242;20.980;2023-07-09T05:28:15;3.05;;;2.40;;
17606;SDS011;69222;52.242;20.980;2023-07-09T05:30:43;5.60;;;1.88;;
17606;SDS011;69222;52.242;20.980;2023-07-09T05:33:11;3.60;;;1.90;;
17606;SDS011;69222;52.242;20.980;2023-07-09T05:35:39;4.43;;;2.00;;
17606;SDS011;69222;52.242;20.980;2023-07-09T05:38:10;2.13;;;1.92;;
17606;SDS011;69222;52.242;20.980;2023-07-09T05:40:39;2.72;;;2.10;;
17606;SDS011;69222;52.242;20.980;2023-07-09T05:43:07;3.60;;;2.00;;
17606;SDS011;69222;52.242;20.980;2023-07-09T05:45:35;2.78;;;2.20;;
17606;SDS011;69222;52.242;20.980;2023-07-09T05:48:03;2.30;;;2.10;;
17606;SDS011;69222;52.242;20.980;2023-07-09T05:50:32;2.95;;;1.98;;
17606;SDS011;69222;52.242;20.980;2023-07-09T05:53:01;2.40;;;2.00;;
17606;SDS011;69222;52.242;20.980;2023-07-09T05:55:29;2.85;;;2.00;;
17606;SDS011;69222;52.242;20.980;2023-07-09T05:57:58;3.83;;;2.10;;
17606;SDS011;69222;52.242;20.980;2023-07-09T06:00:26;2.55;;;2.00;;
17606;SDS011;69222;52.242;20.980;2023-07-09T06:02:54;1.73;;;1.63;;
17606;SDS011;69222;52.242;20.980;2023-07-09T06:05:22;2.03;;;1.80;;
17606;SDS011;69222;52.242;20.980;2023-07-09T06:07:50;2.92;;;1.67;;
17606;SDS011;69222;52.242;20.980;2023-07-09T06:10:18;1.90;;;1.63;;
17606;SDS011;69222;52.242;20.980;2023-07-09T06:12:48;3.38;;;1.67;;
17606;SDS011;69222;52.242;20.980;2023-07-09T06:15:17;2.90;;;2.05;;
17606;SDS011;69222;52.242;20.980;2023-07-09T06:17:45;2.58;;;1.42;;
17606;SDS011;69222;52.242;20.980;2023-07-09T06:20:13;2.60;;;1.70;;
17606;SDS011;69222;52.242;20.980;2023-07-09T06:22:42;2.55;;;1.65;;
17606;SDS011;69222;52.242;20.980;2023-07-09T06:25:10;2.80;;;1.50;;
17606;SDS011;69222;52.242;20.980;2023-07-09T06:27:38;1.83;;;1.63;;
17606;SDS011;69222;52.242;20.980;2023-07-09T06:30:06;4.22;;;1.60;;
17606;SDS011;69222;52.242;20.980;2023-07-09T06:32:36;4.22;;;1.70;;
17606;SDS011;69222;52.242;20.980;2023-07-09T06:35:04;3.10;;;1.67;;
17606;SDS011;69222;52.242;20.980;2023-07-09T06:37:32;2.25;;;1.58;;
17606;SDS011;69222;52.242;20.980;2023-07-09T06:40:00;1.90;;;1.67;;
17606;SDS011;69222;52.242;20.980;2023-07-09T06:42:29;1.63;;;1.42;;
17606;SDS011;69222;52.242;20.980;2023-07-09T06:44:58;2.55;;;1.80;;
17606;SDS011;69222;52.242;20.980;2023-07-09T06:47:26;1.83;;;1.52;;
17606;SDS011;69222;52.242;20.980;2023-07-09T06:49:55;4.18;;;1.73;;
17606;SDS011;69222;52.242;20.980;2023-07-09T06:52:23;2.42;;;1.40;;
17606;SDS011;69222;52.242;20.980;2023-07-09T06:54:51;1.73;;;1.50;;
17606;SDS011;69222;52.242;20.980;2023-07-09T06:57:19;2.92;;;1.45;;
17606;SDS011;69222;52.242;20.980;2023-07-09T06:59:47;1.83;;;1.48;;
17606;SDS011;69222;52.242;20.980;2023-07-09T07:02:16;2.05;;;1.70;;
17606;SDS011;69222;52.242;20.980;2023-07-09T07:04:44;1.45;;;1.23;;
17606;SDS011;69222;52.242;20.980;2023-07-09T07:07:14;2.17;;;1.40;;
17606;SDS011;69222;52.242;20.980;2023-07-09T07:09:42;1.40;;;1.25;;
17606;SDS011;69222;52.242;20.980;2023-07-09T07:12:10;2.25;;;1.42;;
17606;SDS011;69222;52.242;20.980;2023-07-09T07:14:40;2.50;;;1.20;;
17606;SDS011;69222;52.242;20.980;2023-07-09T07:17:08;1.73;;;1.27;;
17606;SDS011;69222;52.242;20.980;2023-07-09T07:19:36;2.53;;;1.45;;
17606;SDS011;69222;52.242;20.980;2023-07-09T07:22:04;1.88;;;1.40;;
17606;SDS011;69222;52.242;20.980;2023-07-09T07:24:34;1.50;;;1.40;;
17606;SDS011;69222;52.242;20.980;2023-07-09T07:27:03;1.77;;;1.30;;
17606;SDS011;69222;52.242;20.980;2023-07-09T07:29:31;1.65;;;1.38;;
17606;SDS011;69222;52.242;20.980;2023-07-09T07:31:59;2.13;;;1.60;;
17606;SDS011;69222;52.242;20.980;2023-07-09T07:34:28;2.58;;;1.40;;
17606;SDS011;69222;52.242;20.980;2023-07-09T07:36:56;2.20;;;1.38;;
17606;SDS011;69222;52.242;20.980;2023-07-09T07:39:24;2.08;;;1.48;;
17606;SDS011;69222;52.242;20.980;2023-07-09T07:41:53;1.30;;;1.20;;
17606;SDS011;69222;52.242;20.980;2023-07-09T07:44:22;4.20;;;1.42;;
17606;SDS011;69222;52.242;20.980;2023-07-09T07:46:50;1.50;;;1.40;;
17606;SDS011;69222;52.242;20.980;2023-07-09T07:49:18;1.48;;;1.27;;
17606;SDS011;69222;52.242;20.980;2023-07-09T07:51:46;2.13;;;1.27;;
17606;SDS011;69222;52.242;20.980;2023-07-09T07:54:14;1.15;;;1.05;;
17606;SDS011;69222;52.242;20.980;2023-07-09T07:56:44;5.38;;;1.50;;
17606;SDS011;69222;52.242;20.980;2023-07-09T07:59:14;4.53;;;1.33;;
17606;SDS011;69222;52.242;20.980;2023-07-09T08:01:42;2.20;;;1.30;;
17606;SDS011;69222;52.242;20.980;2023-07-09T08:04:11;1.55;;;1.35;;
17606;SDS011;69222;52.242;20.980;2023-07-09T08:06:39;3.50;;;1.17;;
17606;SDS011;69222;52.242;20.980;2023-07-09T08:09:07;2.10;;;1.45;;
17606;SDS011;69222;52.242;20.980;2023-07-09T08:11:35;1.40;;;1.00;;
17606;SDS011;69222;52.242;20.980;2023-07-09T08:14:03;1.40;;;1.05;;
17606;SDS011;69222;52.242;20.980;2023-07-09T08:16:34;3.08;;;1.73;;
17606;SDS011;69222;52.242;20.980;2023-07-09T08:19:02;1.50;;;1.00;;
17606;SDS011;69222;52.242;20.980;2023-07-09T08:21:30;1.67;;;1.17;;
17606;SDS011;69222;52.242;20.980;2023-07-09T08:23:58;1.48;;;1.38;;
17606;SDS011;69222;52.242;20.980;2023-07-09T08:26:26;1.50;;;1.30;;
17606;SDS011;69222;52.242;20.980;2023-07-09T08:28:54;1.13;;;1.00;;
17606;SDS011;69222;52.242;20.980;2023-07-09T08:31:24;2.78;;;1.30;;
17606;SDS011;69222;52.242;20.980;2023-07-09T08:33:53;1.40;;;1.25;;
17606;SDS011;69222;52.242;20.980;2023-07-09T08:36:21;1.73;;;1.30;;
17606;SDS011;69222;52.242;20.980;2023-07-09T08:38:54;1.52;;;1.30;;
17606;SDS011;69222;52.242;20.980;2023-07-09T08:41:29;1.75;;;1.10;;
17606;SDS011;69222;52.242;20.980;2023-07-09T08:44:08;1.60;;;1.30;;
17606;SDS011;69222;52.242;20.980;2023-07-09T08:46:51;1.35;;;1.25;;
17606;SDS011;69222;52.242;20.980;2023-07-09T08:49:30;1.70;;;1.23;;
17606;SDS011;69222;52.242;20.980;2023-07-09T08:52:05;1.40;;;1.30;;
17606;SDS011;69222;52.242;20.980;2023-07-09T08:54:41;1.50;;;1.20;;
17606;SDS011;69222;52.242;20.980;2023-07-09T08:57:15;1.60;;;1.17;;
17606;SDS011;69222;52.242;20.980;2023-07-09T08:59:49;2.08;;;1.00;;
17606;SDS011;69222;52.242;20.980;2023-07-09T09:02:24;1.23;;;0.77;;
17606;SDS011;69222;52.242;20.980;2023-07-09T09:04:59;2.05;;;1.02;;
17606;SDS011;69222;52.242;20.980;2023-07-09T09:07:40;3.30;;;2.78;;
17606;SDS011;69222;52.242;20.980;2023-07-09T09:10:11;1.27;;;1.00;;
17606;SDS011;69222;52.242;20.980;2023-07-09T09:12:47;1.98;;;1.05;;
17606;SDS011;69222;52.242;20.980;2023-07-09T09:15:27;2.20;;;1.15;;
17606;SDS011;69222;52.242;20.980;2023-07-09T09:17:56;1.50;;;1.05;;
17606;SDS011;69222;52.242;20.980;2023-07-09T09:20:39;1.23;;;1.13;;
17606;SDS011;69222;52.242;20.980;2023-07-09T09:23:11;2.03;;;1.00;;
17606;SDS011;69222;52.242;20.980;2023-07-09T09:25:42;1.38;;;1.00;;
17606;SDS011;69222;52.242;20.980;2023-07-09T09:28:37;1.30;;;1.20;;
17606;SDS011;69222;52.242;20.980;2023-07-09T09:31:07;1.33;;;1.20;;
17606;SDS011;69222;52.242;20.980;2023-07-09T09:33:36;2.55;;;0.98;;
17606;SDS011;69222;52.242;20.980;2023-07-09T09:36:14;2.60;;;1.00;;
17606;SDS011;69222;52.242;20.980;2023-07-09T09:38:43;2.30;;;1.20;;
17606;SDS011;69222;52.242;20.980;2023-07-09T09:41:13;1.67;;;0.93;;
17606;SDS011;69222;52.242;20.980;2023-07-09T09:43:42;1.27;;;1.15;;
17606;SDS011;69222;52.242;20.980;2023-07-09T09:46:16;1.20;;;1.10;;
17606;SDS011;69222;52.242;20.980;2023-07-09T09:48:46;3.45;;;1.20;;
17606;SDS011;69222;52.242;20.980;2023-07-09T09:51:17;3.38;;;1.00;;
17606;SDS011;69222;52.242;20.980;2023-07-09T09:53:47;1.30;;;1.20;;
17606;SDS011;69222;52.242;20.980;2023-07-09T09:56:19;1.65;;;0.95;;
17606;SDS011;69222;52.242;20.980;2023-07-09T09:58:51;1.10;;;1.00;;
17606;SDS011;69222;52.242;20.980;2023-07-09T10:01:21;2.78;;;1.00;;
17606;SDS011;69222;52.242;20.980;2023-07-09T10:03:55;2.75;;;1.20;;
17606;SDS011;69222;52.242;20.980;2023-07-09T10:06:28;1.50;;;1.17;;
17606;SDS011;69222;52.242;20.980;2023-07-09T10:09:05;1.23;;;1.10;;
17606;SDS011;69222;52.242;20.980;2023-07-09T10:11:46;2.30;;;1.00;;
17606;SDS011;69222;52.242;20.980;2023-07-09T10:14:22;1.65;;;1.27;;
17606;SDS011;69222;52.242;20.980;2023-07-09T10:16:59;1.38;;;1.00;;
17606;SDS011;69222;52.242;20.980;2023-07-09T10:19:33;1.30;;;1.10;;
17606;SDS011;69222;52.242;20.980;2023-07-09T10:22:10;1.30;;;0.90;;
17606;SDS011;69222;52.242;20.980;2023-07-09T10:24:45;1.42;;;0.95;;
17606;SDS011;69222;52.242;20.980;2023-07-09T10:27:26;1.27;;;0.90;;
17606;SDS011;69222;52.242;20.980;2023-07-09T10:30:09;1.25;;;0.88;;
17606;SDS011;69222;52.242;20.980;2023-07-09T10:32:51;2.63;;;0.95;;
17606;SDS011;69222;52.242;20.980;2023-07-09T10:35:34;1.13;;;0.77;;
17606;SDS011;69222;52.242;20.980;2023-07-09T10:38:14;0.80;;;0.80;;
17606;SDS011;69222;52.242;20.980;2023-07-09T10:40:51;1.23;;;0.60;;
17606;SDS011;69222;52.242;20.980;2023-07-09T10:43:29;1.05;;;0.90;;
17606;SDS011;69222;52.242;20.980;2023-07-09T10:46:04;2.42;;;1.10;;
17606;SDS011;69222;52.242;20.980;2023-07-09T10:48:38;1.58;;;0.95;;
17606;SDS011;69222;52.242;20.980;2023-07-09T10:51:15;1.27;;;0.70;;
17606;SDS011;69222;52.242;20.980;2023-07-09T10:53:50;0.85;;;0.80;;
17606;SDS011;69222;52.242;20.980;2023-07-09T10:56:24;1.13;;;0.80;;
17606;SDS011;69222;52.242;20.980;2023-07-09T10:58:57;1.27;;;0.85;;
17606;SDS011;69222;52.242;20.980;2023-07-09T11:01:33;1.02;;;0.80;;
17606;SDS011;69222;52.242;20.980;2023-07-09T11:04:08;0.88;;;0.65;;
17606;SDS011;69222;52.242;20.980;2023-07-09T11:06:44;1.08;;;0.77;;
17606;SDS011;69222;52.242;20.980;2023-07-09T11:09:20;1.05;;;0.95;;
17606;SDS011;69222;52.242;20.980;2023-07-09T11:11:53;1.00;;;0.88;;
17606;SDS011;69222;52.242;20.980;2023-07-09T11:14:26;1.23;;;0.68;;
17606;SDS011;69222;52.242;20.980;2023-07-09T11:16:59;0.80;;;0.70;;
17606;SDS011;69222;52.242;20.980;2023-07-09T11:19:28;1.02;;;0.93;;
17606;SDS011;69222;52.242;20.980;2023-07-09T11:22:01;1.20;;;0.80;;
17606;SDS011;69222;52.242;20.980;2023-07-09T11:24:34;0.95;;;0.80;;
17606;SDS011;69222;52.242;20.980;2023-07-09T11:27:20;2.20;;;0.88;;
17606;SDS011;69222;52.242;20.980;2023-07-09T11:29:55;1.02;;;0.70;;
17606;SDS011;69222;52.242;20.980;2023-07-09T11:32:26;2.70;;;0.60;;
17606;SDS011;69222;52.242;20.980;2023-07-09T11:35:05;1.10;;;0.88;;
17606;SDS011;69222;52.242;20.980;2023-07-09T11:37:43;0.80;;;0.57;;
17606;SDS011;69222;52.242;20.980;2023-07-09T11:40:15;1.05;;;0.88;;
17606;SDS011;69222;52.242;20.980;2023-07-09T11:42:52;1.75;;;0.90;;
17606;SDS011;69222;52.242;20.980;2023-07-09T11:45:24;1.33;;;0.80;;
17606;SDS011;69222;52.242;20.980;2023-07-09T11:47:56;0.55;;;0.55;;
17606;SDS011;69222;52.242;20.980;2023-07-09T11:50:33;0.63;;;0.52;;
17606;SDS011;69222;52.242;20.980;2023-07-09T11:53:13;0.70;;;0.60;;
17606;SDS011;69222;52.242;20.980;2023-07-09T11:55:55;0.60;;;0.60;;
17606;SDS011;69222;52.242;20.980;2023-07-09T11:58:23;0.55;;;0.55;;
17606;SDS011;69222;52.242;20.980;2023-07-09T12:00:54;1.30;;;0.70;;
17606;SDS011;69222;52.242;20.980;2023-07-09T12:03:25;1.00;;;0.80;;
17606;SDS011;69222;52.242;20.980;2023-07-09T12:05:55;0.80;;;0.80;;
17606;SDS011;69222;52.242;20.980;2023-07-09T12:08:27;0.95;;;0.80;;
17606;SDS011;69222;52.242;20.980;2023-07-09T12:11:02;0.85;;;0.85;;
17606;SDS011;69222;52.242;20.980;2023-07-09T12:13:36;0.90;;;0.90;;
17606;SDS011;69222;52.242;20.980;2023-07-09T12:16:17;0.88;;;0.80;;
17606;SDS011;69222;52.242;20.980;2023-07-09T12:18:48;0.63;;;0.63;;
17606;SDS011;69222;52.242;20.980;2023-07-09T12:21:16;2.95;;;0.90;;
17606;SDS011;69222;52.242;20.980;2023-07-09T12:23:45;1.10;;;0.85;;
17606;SDS011;69222;52.242;20.980;2023-07-09T12:26:15;1.85;;;0.75;;
17606;SDS011;69222;52.242;20.980;2023-07-09T12:28:49;2.22;;;0.95;;
17606;SDS011;69222;52.242;20.980;2023-07-09T12:31:20;2.17;;;0.80;;
17606;SDS011;69222;52.242;20.980;2023-07-09T12:33:53;1.20;;;1.00;;
17606;SDS011;69222;52.242;20.980;2023-07-09T12:36:23;3.72;;;0.82;;
17606;SDS011;69222;52.242;20.980;2023-07-09T12:38:53;0.80;;;0.80;;
17606;SDS011;69222;52.242;20.980;2023-07-09T12:41:26;1.67;;;0.80;;
17606;SDS011;69222;52.242;20.980;2023-07-09T12:43:57;0.95;;;0.85;;
17606;SDS011;69222;52.242;20.980;2023-07-09T12:46:25;1.40;;;1.05;;
17606;SDS011;69222;52.242;20.980;2023-07-09T12:48:54;0.90;;;0.82;;
17606;SDS011;69222;52.242;20.980;2023-07-09T12:51:23;2.25;;;0.80;;
17606;SDS011;69222;52.242;20.980;2023-07-09T12:54:00;0.75;;;0.70;;
17606;SDS011;69222;52.242;20.980;2023-07-09T12:56:31;0.85;;;0.85;;
17606;SDS011;69222;52.242;20.980;2023-07-09T12:59:03;0.85;;;0.65;;
17606;SDS011;69222;52.242;20.980;2023-07-09T13:01:46;1.38;;;0.98;;
17606;SDS011;69222;52.242;20.980;2023-07-09T13:04:16;0.90;;;0.80;;
17606;SDS011;69222;52.242;20.980;2023-07-09T13:06:44;1.50;;;0.80;;
17606;SDS011;69222;52.242;20.980;2023-07-09T13:09:15;1.10;;;0.93;;
17606;SDS011;69222;52.242;20.980;2023-07-09T13:11:49;0.80;;;0.80;;
17606;SDS011;69222;52.242;20.980;2023-07-09T13:14:19;1.38;;;0.63;;
17606;SDS011;69222;52.242;20.980;2023-07-09T13:16:48;0.98;;;0.85;;
17606;SDS011;69222;52.242;20.980;2023-07-09T13:19:16;0.65;;;0.65;;
17606;SDS011;69222;52.242;20.980;2023-07-09T13:21:45;0.93;;;0.80;;
17606;SDS011;69222;52.242;20.980;2023-07-09T13:24:15;0.90;;;0.90;;
17606;SDS011;69222;52.242;20.980;2023-07-09T13:26:49;1.10;;;1.00;;
17606;SDS011;69222;52.242;20.980;2023-07-09T13:29:17;2.78;;;1.00;;
17606;SDS011;69222;52.242;20.980;2023-07-09T13:31:47;0.80;;;0.80;;
17606;SDS011;69222;52.242;20.980;2023-07-09T13:34:20;0.80;;;0.80;;
17606;SDS011;69222;52.242;20.980;2023-07-09T13:36:50;0.80;;;0.80;;
17606;SDS011;69222;52.242;20.980;2023-07-09T13:39:20;1.27;;;0.90;;
17606;SDS011;69222;52.242;20.980;2023-07-09T13:41:50;0.90;;;0.90;;
17606;SDS011;69222;52.242;20.980;2023-07-09T13:44:20;0.80;;;0.80;;
17606;SDS011;69222;52.242;20.980;2023-07-09T13:46:51;0.85;;;0.85;;
17606;SDS011;69222;52.242;20.980;2023-07-09T13:49:20;1.17;;;0.88;;
17606;SDS011;69222;52.242;20.980;2023-07-09T13:51:50;1.33;;;0.93;;
17606;SDS011;69222;52.242;20.980;2023-07-09T13:54:22;1.30;;;1.00;;
17606;SDS011;69222;52.242;20.980;2023-07-09T13:56:53;0.85;;;0.85;;
17606;SDS011;69222;52.242;20.980;2023-07-09T13:59:21;1.95;;;1.10;;
17606;SDS011;69222;52.242;20.980;2023-07-09T14:01:52;1.83;;;1.00;;
17606;SDS011;69222;52.242;20.980;2023-07-09T14:04:23;2.40;;;1.00;;
17606;SDS011;69222;52.242;20.980;2023-07-09T14:06:52;3.75;;;0.82;;
17606;SDS011;69222;52.242;20.980;2023-07-09T14:09:21;1.50;;;0.93;;
17606;SDS011;69222;52.242;20.980;2023-07-09T14:11:49;0.80;;;0.80;;
17606;SDS011;69222;52.242;20.980;2023-07-09T14:14:21;0.95;;;0.85;;
17606;SDS011;69222;52.242;20.980;2023-07-09T14:16:51;2.40;;;0.88;;
17606;SDS011;69222;52.242;20.980;2023-07-09T14:19:20;1.85;;;1.10;;
17606;SDS011;69222;52.242;20.980;2023-07-09T14:21:50;0.85;;;0.85;;
17606;SDS011;69222;52.242;20.980;2023-07-09T14:24:20;2.13;;;1.08;;
17606;SDS011;69222;52.242;20.980;2023-07-09T14:26:51;1.95;;;1.20;;
17606;SDS011;69222;52.242;20.980;2023-07-09T14:29:21;1.15;;;1.05;;
17606;SDS011;69222;52.242;20.980;2023-07-09T14:31:50;0.75;;;0.75;;
17606;SDS011;69222;52.242;20.980;2023-07-09T14:34:19;1.08;;;1.00;;
17606;SDS011;69222;52.242;20.980;2023-07-09T14:36:49;1.05;;;1.00;;
17606;SDS011;69222;52.242;20.980;2023-07-09T14:39:18;2.03;;;1.15;;
17606;SDS011;69222;52.242;20.980;2023-07-09T14:41:47;1.65;;;1.17;;
17606;SDS011;69222;52.242;20.980;2023-07-09T14:44:19;2.08;;;1.17;;
17606;SDS011;69222;52.242;20.980;2023-07-09T14:46:51;1.13;;;1.10;;
17606;SDS011;69222;52.242;20.980;2023-07-09T14:49:20;1.30;;;1.00;;
17606;SDS011;69222;52.242;20.980;2023-07-09T14:51:49;1.33;;;1.15;;
17606;SDS011;69222;52.242;20.980;2023-07-09T14:54:19;2.75;;;1.30;;